sensor_id;sensor_type;location;lat;lon;timestamp;temperature;humidity
17364;DHT22;8799;43.594;13.526;2022-08-27T00:01:51;26.50;99.90
17364;DHT22;8799;43.594;13.526;2022-08-27T00:04:19;26.50;99.90
17364;DHT22;8799;43.594;13.526;2022-08-27T00:06:47;26.50;99.90
17364;DHT22;8799;43.594;13.526;2022-08-27T00:09:16;26.50;99.90
17364;DHT22;8799;43.594;13.526;2022-08-27T00:11:45;26.40;99.50
17364;DHT22;8799;43.594;13.526;2022-08-27T00:14:15;26.40;98.70
17364;DHT22;8799;43.594;13.526;2022-08-27T00:16:43;26.30;97.90
17364;DHT22;8799;43.594;13.526;2022-08-27T00:19:11;26.30;98.50
17364;DHT22;8799;43.594;13.526;2022-08-27T00:21:38;26.20;98.70
17364;DHT22;8799;43.594;13.526;2022-08-27T00:24:10;26.10;98.90
17364;DHT22;8799;43.594;13.526;2022-08-27T00:26:38;26.10;99.50
17364;DHT22;8799;43.594;13.526;2022-08-27T00:29:08;26.10;99.90
17364;DHT22;8799;43.594;13.526;2022-08-27T00:31:36;26.10;99.90
17364;DHT22;8799;43.594;13.526;2022-08-27T00:34:04;26.10;99.90
17364;DHT22;8799;43.594;13.526;2022-08-27T00:36:31;26.10;99.90
17364;DHT22;8799;43.594;13.526;2022-08-27T00:38:59;26.10;99.90
17364;DHT22;8799;43.594;13.526;2022-08-27T00:41:27;26.10;99.90
17364;DHT22;8799;43.594;13.526;2022-08-27T00:43:57;26.00;99.90
17364;DHT22;8799;43.594;13.526;2022-08-27T00:46:29;26.00;99.90
17364;DHT22;8799;43.594;13.526;2022-08-27T00:49:05;26.00;99.90
17364;DHT22;8799;43.594;13.526;2022-08-27T00:51:34;26.00;99.90
17364;DHT22;8799;43.594;13.526;2022-08-27T00:54:03;26.00;99.90
17364;DHT22;8799;43.594;13.526;2022-08-27T00:56:36;26.00;99.90
17364;DHT22;8799;43.594;13.526;2022-08-27T00:59:05;26.00;99.60
17364;DHT22;8799;43.594;13.526;2022-08-27T01:01:34;26.00;99.60
17364;DHT22;8799;43.594;13.526;2022-08-27T01:04:22;26.00;99.90
17364;DHT22;8799;43.594;13.526;2022-08-27T01:06:49;26.00;99.90
17364;DHT22;8799;43.594;13.526;2022-08-27T01:09:17;25.90;99.90
17364;DHT22;8799;43.594;13.526;2022-08-27T01:11:46;25.90;99.90
17364;DHT22;8799;43.594;13.526;2022-08-27T01:14:15;26.00;99.90
17364;DHT22;8799;43.594;13.526;2022-08-27T01:16:46;26.00;99.90
17364;DHT22;8799;43.594;13.526;2022-08-27T01:19:23;26.00;99.90
17364;DHT22;8799;43.594;13.526;2022-08-27T01:21:58;26.10;99.80
17364;DHT22;8799;43.594;13.526;2022-08-27T01:24:34;26.00;99.70
17364;DHT22;8799;43.594;13.526;2022-08-27T01:27:05;26.00;99.60
17364;DHT22;8799;43.594;13.526;2022-08-27T01:29:34;26.00;99.60
17364;DHT22;8799;43.594;13.526;2022-08-27T01:32:07;25.90;99.30
17364;DHT22;8799;43.594;13.526;2022-08-27T01:34:36;25.90;99.50
17364;DHT22;8799;43.594;13.526;2022-08-27T01:37:04;25.90;99.70
17364;DHT22;8799;43.594;13.526;2022-08-27T01:39:35;25.90;99.90
17364;DHT22;8799;43.594;13.526;2022-08-27T01:42:06;25.90;99.90
17364;DHT22;8799;43.594;13.526;2022-08-27T01:44:43;26.00;99.90
17364;DHT22;8799;43.594;13.526;2022-08-27T01:47:10;26.00;99.90
17364;DHT22;8799;43.594;13.526;2022-08-27T01:49:38;26.00;99.90
17364;DHT22;8799;43.594;13.526;2022-08-27T01:52:06;26.00;99.90
17364;DHT22;8799;43.594;13.526;2022-08-27T01:54:35;26.00;99.90
17364;DHT22;8799;43.594;13.526;2022-08-27T01:57:04;26.00;99.90
17364;DHT22;8799;43.594;13.526;2022-08-27T01:59:35;26.00;99.90
17364;DHT22;8799;43.594;13.526;2022-08-27T02:02:03;26.00;99.90
17364;DHT22;8799;43.594;13.526;2022-08-27T02:04:31;26.00;99.90
17364;DHT22;8799;43.594;13.526;2022-08-27T02:06:59;25.90;99.80
17364;DHT22;8799;43.594;13.526;2022-08-27T02:09:26;25.90;99.90
17364;DHT22;8799;43.594;13.526;2022-08-27T02:11:56;25.90;99.90
17364;DHT22;8799;43.594;13.526;2022-08-27T02:14:25;25.90;99.90
17364;DHT22;8799;43.594;13.526;2022-08-27T02:16:54;25.90;99.90
17364;DHT22;8799;43.594;13.526;2022-08-27T02:19:22;25.90;99.90
17364;DHT22;8799;43.594;13.526;2022-08-27T02:21:50;25.90;99.90
17364;DHT22;8799;43.594;13.526;2022-08-27T02:24:17;25.90;99.90
17364;DHT22;8799;43.594;13.526;2022-08-27T02:26:45;25.80;99.90
17364;DHT22;8799;43.594;13.526;2022-08-27T02:29:14;25.80;99.90
17364;DHT22;8799;43.594;13.526;2022-08-27T02:31:41;25.80;99.90
17364;DHT22;8799;43.594;13.526;2022-08-27T02:34:09;25.70;99.90
17364;DHT22;8799;43.594;13.526;2022-08-27T02:36:37;25.80;99.90
17364;DHT22;8799;43.594;13.526;2022-08-27T02:39:05;25.80;99.90
17364;DHT22;8799;43.594;13.526;2022-08-27T02:41:33;25.80;99.90
17364;DHT22;8799;43.594;13.526;2022-08-27T02:44:01;25.80;99.90
17364;DHT22;8799;43.594;13.526;2022-08-27T02:46:30;25.80;99.90
17364;DHT22;8799;43.594;13.526;2022-08-27T02:48:59;25.80;99.90
17364;DHT22;8799;43.594;13.526;2022-08-27T02:51:26;25.70;99.90
17364;DHT22;8799;43.594;13.526;2022-08-27T02:54:00;25.70;99.90
17364;DHT22;8799;43.594;13.526;2022-08-27T02:56:28;25.60;99.90
17364;DHT22;8799;43.594;13.526;2022-08-27T02:58:57;25.60;99.90
17364;DHT22;8799;43.594;13.526;2022-08-27T03:01:25;25.60;99.90
17364;DHT22;8799;43.594;13.526;2022-08-27T03:03:55;25.60;99.90
17364;DHT22;8799;43.594;13.526;2022-08-27T03:06:23;25.60;99.90
17364;DHT22;8799;43.594;13.526;2022-08-27T03:08:50;25.60;99.90
17364;DHT22;8799;43.594;13.526;2022-08-27T03:11:18;25.60;99.90
17364;DHT22;8799;43.594;13.526;2022-08-27T03:13:47;25.60;99.90
17364;DHT22;8799;43.594;13.526;2022-08-27T03:16:14;25.60;99.90
17364;DHT22;8799;43.594;13.526;2022-08-27T03:18:42;25.60;99.90
17364;DHT22;8799;43.594;13.526;2022-08-27T03:21:15;25.60;99.90
17364;DHT22;8799;43.594;13.526;2022-08-27T03:23:43;25.60;99.90
17364;DHT22;8799;43.594;13.526;2022-08-27T03:26:11;25.50;99.90
17364;DHT22;8799;43.594;13.526;2022-08-27T03:28:39;25.50;99.90
17364;DHT22;8799;43.594;13.526;2022-08-27T03:31:15;25.50;99.90
17364;DHT22;8799;43.594;13.526;2022-08-27T03:33:46;25.50;99.90
17364;DHT22;8799;43.594;13.526;2022-08-27T03:36:15;25.40;99.90
17364;DHT22;8799;43.594;13.526;2022-08-27T03:38:43;25.50;99.90
17364;DHT22;8799;43.594;13.526;2022-08-27T03:41:10;25.50;99.90
17364;DHT22;8799;43.594;13.526;2022-08-27T03:43:38;25.50;99.90
17364;DHT22;8799;43.594;13.526;2022-08-27T03:46:06;25.50;99.90
17364;DHT22;8799;43.594;13.526;2022-08-27T03:48:34;25.60;99.90
17364;DHT22;8799;43.594;13.526;2022-08-27T03:51:04;25.60;99.90
17364;DHT22;8799;43.594;13.526;2022-08-27T03:53:34;25.60;99.90
17364;DHT22;8799;43.594;13.526;2022-08-27T03:56:03;25.60;99.90
17364;DHT22;8799;43.594;13.526;2022-08-27T03:58:30;25.60;99.90
17364;DHT22;8799;43.594;13.526;2022-08-27T04:00:59;25.60;99.90
17364;DHT22;8799;43.594;13.526;2022-08-27T04:03:26;25.60;99.90
17364;DHT22;8799;43.594;13.526;2022-08-27T04:05:55;25.60;99.90
17364;DHT22;8799;43.594;13.526;2022-08-27T04:08:23;25.60;99.90
17364;DHT22;8799;43.594;13.526;2022-08-27T04:10:53;25.60;99.90
17364;DHT22;8799;43.594;13.526;2022-08-27T04:13:22;25.60;99.90
17364;DHT22;8799;43.594;13.526;2022-08-27T04:15:51;25.50;99.90
17364;DHT22;8799;43.594;13.526;2022-08-27T04:18:19;25.50;99.90
17364;DHT22;8799;43.594;13.526;2022-08-27T04:20:48;25.50;99.90
17364;DHT22;8799;43.594;13.526;2022-08-27T04:23:17;25.50;99.90
17364;DHT22;8799;43.594;13.526;2022-08-27T04:25:44;25.50;99.90
17364;DHT22;8799;43.594;13.526;2022-08-27T04:28:15;25.50;99.90
17364;DHT22;8799;43.594;13.526;2022-08-27T04:30:45;25.50;99.90
17364;DHT22;8799;43.594;13.526;2022-08-27T04:33:14;25.50;99.60
17364;DHT22;8799;43.594;13.526;2022-08-27T04:35:42;25.50;99.20
17364;DHT22;8799;43.594;13.526;2022-08-27T04:38:09;25.50;99.20
17364;DHT22;8799;43.594;13.526;2022-08-27T04:40:37;25.50;99.30
17364;DHT22;8799;43.594;13.526;2022-08-27T04:43:38;25.40;99.60
17364;DHT22;8799;43.594;13.526;2022-08-27T04:46:06;25.30;99.90
17364;DHT22;8799;43.594;13.526;2022-08-27T04:48:33;25.20;99.90
17364;DHT22;8799;43.594;13.526;2022-08-27T04:51:02;25.30;99.90
17364;DHT22;8799;43.594;13.526;2022-08-27T04:53:30;25.30;99.90
17364;DHT22;8799;43.594;13.526;2022-08-27T04:55:58;25.30;99.90
17364;DHT22;8799;43.594;13.526;2022-08-27T04:58:26;25.30;99.90
17364;DHT22;8799;43.594;13.526;2022-08-27T05:00:56;25.30;99.90
17364;DHT22;8799;43.594;13.526;2022-08-27T05:03:26;25.30;99.90
17364;DHT22;8799;43.594;13.526;2022-08-27T05:06:00;25.40;99.90
17364;DHT22;8799;43.594;13.526;2022-08-27T05:08:28;25.40;99.90
17364;DHT22;8799;43.594;13.526;2022-08-27T05:10:56;25.40;99.90
17364;DHT22;8799;43.594;13.526;2022-08-27T05:13:26;25.40;99.90
17364;DHT22;8799;43.594;13.526;2022-08-27T05:15:59;25.40;99.90
17364;DHT22;8799;43.594;13.526;2022-08-27T05:18:28;25.40;99.90
17364;DHT22;8799;43.594;13.526;2022-08-27T05:20:56;25.40;99.90
17364;DHT22;8799;43.594;13.526;2022-08-27T05:23:23;25.30;99.90
17364;DHT22;8799;43.594;13.526;2022-08-27T05:25:53;25.20;99.90
17364;DHT22;8799;43.594;13.526;2022-08-27T05:28:23;25.20;99.90
17364;DHT22;8799;43.594;13.526;2022-08-27T05:30:54;25.20;99.90
17364;DHT22;8799;43.594;13.526;2022-08-27T05:33:24;25.10;99.90
17364;DHT22;8799;43.594;13.526;2022-08-27T05:35:55;25.10;99.90
17364;DHT22;8799;43.594;13.526;2022-08-27T05:38:24;25.00;99.90
17364;DHT22;8799;43.594;13.526;2022-08-27T05:41:01;25.00;99.90
17364;DHT22;8799;43.594;13.526;2022-08-27T05:43:29;24.90;99.90
17364;DHT22;8799;43.594;13.526;2022-08-27T05:45:58;24.80;99.90
17364;DHT22;8799;43.594;13.526;2022-08-27T05:48:27;24.80;99.90
17364;DHT22;8799;43.594;13.526;2022-08-27T05:50:55;24.90;99.90
17364;DHT22;8799;43.594;13.526;2022-08-27T05:53:24;24.90;99.90
17364;DHT22;8799;43.594;13.526;2022-08-27T05:55:52;24.90;99.90
17364;DHT22;8799;43.594;13.526;2022-08-27T05:58:29;24.90;99.90
17364;DHT22;8799;43.594;13.526;2022-08-27T06:01:14;24.90;99.90
17364;DHT22;8799;43.594;13.526;2022-08-27T06:03:44;25.00;99.90
17364;DHT22;8799;43.594;13.526;2022-08-27T06:06:11;25.10;99.90
17364;DHT22;8799;43.594;13.526;2022-08-27T06:08:39;25.10;99.90
17364;DHT22;8799;43.594;13.526;2022-08-27T06:11:07;25.10;99.90
17364;DHT22;8799;43.594;13.526;2022-08-27T06:13:35;25.20;99.90
17364;DHT22;8799;43.594;13.526;2022-08-27T06:16:05;25.30;99.90
17364;DHT22;8799;43.594;13.526;2022-08-27T06:18:34;25.40;99.90
17364;DHT22;8799;43.594;13.526;2022-08-27T06:21:04;25.40;99.90
17364;DHT22;8799;43.594;13.526;2022-08-27T06:23:32;25.40;99.90
17364;DHT22;8799;43.594;13.526;2022-08-27T06:26:03;25.50;99.90
17364;DHT22;8799;43.594;13.526;2022-08-27T06:28:32;25.60;99.30
17364;DHT22;8799;43.594;13.526;2022-08-27T06:31:05;25.60;98.20
17364;DHT22;8799;43.594;13.526;2022-08-27T06:33:32;25.70;99.30
17364;DHT22;8799;43.594;13.526;2022-08-27T06:36:10;27.40;99.90
17364;DHT22;8799;43.594;13.526;2022-08-27T06:38:38;25.80;97.90
17364;DHT22;8799;43.594;13.526;2022-08-27T06:41:08;25.80;97.50
17364;DHT22;8799;43.594;13.526;2022-08-27T06:43:38;25.90;97.20
17364;DHT22;8799;43.594;13.526;2022-08-27T06:46:08;25.90;97.10
17364;DHT22;8799;43.594;13.526;2022-08-27T06:48:37;26.00;97.70
17364;DHT22;8799;43.594;13.526;2022-08-27T06:51:12;26.00;97.40
17364;DHT22;8799;43.594;13.526;2022-08-27T06:53:43;26.10;97.70
17364;DHT22;8799;43.594;13.526;2022-08-27T06:56:12;26.10;97.50
17364;DHT22;8799;43.594;13.526;2022-08-27T06:58:41;26.10;96.90
17364;DHT22;8799;43.594;13.526;2022-08-27T07:01:13;26.10;96.90
17364;DHT22;8799;43.594;13.526;2022-08-27T07:03:41;26.10;96.50
17364;DHT22;8799;43.594;13.526;2022-08-27T07:06:11;26.20;96.30
17364;DHT22;8799;43.594;13.526;2022-08-27T07:08:40;26.20;96.40
17364;DHT22;8799;43.594;13.526;2022-08-27T07:11:09;26.20;96.30
17364;DHT22;8799;43.594;13.526;2022-08-27T07:13:38;26.20;96.20
17364;DHT22;8799;43.594;13.526;2022-08-27T07:16:10;26.20;95.90
17364;DHT22;8799;43.594;13.526;2022-08-27T07:18:39;26.20;95.70
17364;DHT22;8799;43.594;13.526;2022-08-27T07:21:08;26.20;95.10
17364;DHT22;8799;43.594;13.526;2022-08-27T07:23:37;26.20;95.10
17364;DHT22;8799;43.594;13.526;2022-08-27T07:26:10;26.20;94.20
17364;DHT22;8799;43.594;13.526;2022-08-27T07:28:39;26.20;94.20
17364;DHT22;8799;43.594;13.526;2022-08-27T07:31:08;26.20;94.20
17364;DHT22;8799;43.594;13.526;2022-08-27T07:33:37;26.20;94.30
17364;DHT22;8799;43.594;13.526;2022-08-27T07:36:06;26.20;94.10
17364;DHT22;8799;43.594;13.526;2022-08-27T07:38:34;26.30;94.10
17364;DHT22;8799;43.594;13.526;2022-08-27T07:41:06;26.30;93.70
17364;DHT22;8799;43.594;13.526;2022-08-27T07:43:34;26.20;93.40
17364;DHT22;8799;43.594;13.526;2022-08-27T07:46:19;26.20;93.10
17364;DHT22;8799;43.594;13.526;2022-08-27T07:48:48;26.30;92.90
17364;DHT22;8799;43.594;13.526;2022-08-27T07:51:17;26.30;92.70
17364;DHT22;8799;43.594;13.526;2022-08-27T07:53:46;26.30;92.70
17364;DHT22;8799;43.594;13.526;2022-08-27T07:56:15;26.40;92.40
17364;DHT22;8799;43.594;13.526;2022-08-27T07:58:43;26.30;92.30
17364;DHT22;8799;43.594;13.526;2022-08-27T08:01:12;26.40;92.40
17364;DHT22;8799;43.594;13.526;2022-08-27T08:03:40;26.40;92.40
17364;DHT22;8799;43.594;13.526;2022-08-27T08:06:09;26.40;92.30
17364;DHT22;8799;43.594;13.526;2022-08-27T08:08:39;26.40;92.20
17364;DHT22;8799;43.594;13.526;2022-08-27T08:11:06;26.40;92.30
17364;DHT22;8799;43.594;13.526;2022-08-27T08:13:36;26.40;92.30
17364;DHT22;8799;43.594;13.526;2022-08-27T08:16:04;26.40;92.30
17364;DHT22;8799;43.594;13.526;2022-08-27T08:18:33;26.40;92.30
17364;DHT22;8799;43.594;13.526;2022-08-27T08:21:02;26.40;92.40
17364;DHT22;8799;43.594;13.526;2022-08-27T08:23:31;26.40;92.40
17364;DHT22;8799;43.594;13.526;2022-08-27T08:25:59;26.40;92.40
17364;DHT22;8799;43.594;13.526;2022-08-27T08:28:28;26.40;92.40
17364;DHT22;8799;43.594;13.526;2022-08-27T08:30:57;26.40;92.20
17364;DHT22;8799;43.594;13.526;2022-08-27T08:33:25;26.40;92.20
17364;DHT22;8799;43.594;13.526;2022-08-27T08:35:53;26.40;92.40
17364;DHT22;8799;43.594;13.526;2022-08-27T08:38:22;26.50;92.30
17364;DHT22;8799;43.594;13.526;2022-08-27T08:40:51;26.40;92.30
17364;DHT22;8799;43.594;13.526;2022-08-27T08:43:28;26.50;92.30
17364;DHT22;8799;43.594;13.526;2022-08-27T08:46:05;26.50;92.20
17364;DHT22;8799;43.594;13.526;2022-08-27T08:48:35;26.50;91.90
17364;DHT22;8799;43.594;13.526;2022-08-27T08:51:08;26.50;91.50
17364;DHT22;8799;43.594;13.526;2022-08-27T08:53:43;26.50;91.40
17364;DHT22;8799;43.594;13.526;2022-08-27T08:56:19;26.50;91.40
17364;DHT22;8799;43.594;13.526;2022-08-27T08:58:52;26.50;91.40
17364;DHT22;8799;43.594;13.526;2022-08-27T09:01:25;26.50;91.20
17364;DHT22;8799;43.594;13.526;2022-08-27T09:03:55;26.50;91.10
17364;DHT22;8799;43.594;13.526;2022-08-27T09:06:32;26.50;91.10
17364;DHT22;8799;43.594;13.526;2022-08-27T09:09:11;26.50;90.90
17364;DHT22;8799;43.594;13.526;2022-08-27T09:11:45;26.60;91.50
17364;DHT22;8799;43.594;13.526;2022-08-27T09:14:23;26.60;92.00
17364;DHT22;8799;43.594;13.526;2022-08-27T09:16:54;26.60;92.20
17364;DHT22;8799;43.594;13.526;2022-08-27T09:19:25;26.60;92.40
17364;DHT22;8799;43.594;13.526;2022-08-27T09:21:59;26.60;93.00
17364;DHT22;8799;43.594;13.526;2022-08-27T09:24:34;26.60;93.20
17364;DHT22;8799;43.594;13.526;2022-08-27T09:27:04;26.60;92.90
17364;DHT22;8799;43.594;13.526;2022-08-27T09:29:32;26.70;92.60
17364;DHT22;8799;43.594;13.526;2022-08-27T09:32:06;26.70;92.30
17364;DHT22;8799;43.594;13.526;2022-08-27T09:34:35;26.70;92.60
17364;DHT22;8799;43.594;13.526;2022-08-27T09:37:05;26.70;92.90
17364;DHT22;8799;43.594;13.526;2022-08-27T09:39:39;26.70;93.40
17364;DHT22;8799;43.594;13.526;2022-08-27T09:42:08;26.70;93.60
17364;DHT22;8799;43.594;13.526;2022-08-27T09:44:47;26.70;93.90
17364;DHT22;8799;43.594;13.526;2022-08-27T09:47:19;26.70;94.00
17364;DHT22;8799;43.594;13.526;2022-08-27T09:49:47;26.70;94.80
17364;DHT22;8799;43.594;13.526;2022-08-27T09:52:30;26.70;95.40
17364;DHT22;8799;43.594;13.526;2022-08-27T09:54:58;26.70;95.00
17364;DHT22;8799;43.594;13.526;2022-08-27T09:57:32;26.70;94.90
17364;DHT22;8799;43.594;13.526;2022-08-27T10:00:01;26.70;94.90
17364;DHT22;8799;43.594;13.526;2022-08-27T10:02:31;26.70;95.00
17364;DHT22;8799;43.594;13.526;2022-08-27T10:05:02;26.70;94.80
17364;DHT22;8799;43.594;13.526;2022-08-27T10:07:45;26.70;94.90
17364;DHT22;8799;43.594;13.526;2022-08-27T10:10:20;26.70;94.70
17364;DHT22;8799;43.594;13.526;2022-08-27T10:12:54;26.70;94.40
17364;DHT22;8799;43.594;13.526;2022-08-27T10:15:23;26.70;93.90
17364;DHT22;8799;43.594;13.526;2022-08-27T10:18:02;26.70;93.70
17364;DHT22;8799;43.594;13.526;2022-08-27T10:20:39;26.70;93.50
17364;DHT22;8799;43.594;13.526;2022-08-27T10:23:18;26.70;93.20
17364;DHT22;8799;43.594;13.526;2022-08-27T10:25:53;26.70;93.00
17364;DHT22;8799;43.594;13.526;2022-08-27T10:28:32;26.70;92.60
17364;DHT22;8799;43.594;13.526;2022-08-27T10:31:21;26.70;92.20
17364;DHT22;8799;43.594;13.526;2022-08-27T10:34:01;26.70;92.10
17364;DHT22;8799;43.594;13.526;2022-08-27T10:36:41;26.70;92.00
17364;DHT22;8799;43.594;13.526;2022-08-27T10:39:18;26.70;91.70
17364;DHT22;8799;43.594;13.526;2022-08-27T10:41:52;26.70;91.30
17364;DHT22;8799;43.594;13.526;2022-08-27T10:44:34;26.70;90.70
17364;DHT22;8799;43.594;13.526;2022-08-27T10:47:13;26.80;90.80
17364;DHT22;8799;43.594;13.526;2022-08-27T10:49:51;26.80;90.20
17364;DHT22;8799;43.594;13.526;2022-08-27T10:52:22;26.80;90.10
17364;DHT22;8799;43.594;13.526;2022-08-27T10:54:55;26.80;89.80
17364;DHT22;8799;43.594;13.526;2022-08-27T10:57:40;26.80;89.50
17364;DHT22;8799;43.594;13.526;2022-08-27T11:00:24;26.70;89.50
17364;DHT22;8799;43.594;13.526;2022-08-27T11:03:01;26.70;89.20
17364;DHT22;8799;43.594;13.526;2022-08-27T11:05:35;26.70;89.40
17364;DHT22;8799;43.594;13.526;2022-08-27T11:08:11;26.70;89.30
17364;DHT22;8799;43.594;13.526;2022-08-27T11:10:44;26.70;89.30
17364;DHT22;8799;43.594;13.526;2022-08-27T11:13:22;26.70;89.40
17364;DHT22;8799;43.594;13.526;2022-08-27T11:15:54;26.80;89.10
17364;DHT22;8799;43.594;13.526;2022-08-27T11:18:30;26.80;89.00
17364;DHT22;8799;43.594;13.526;2022-08-27T11:21:14;26.80;88.60
17364;DHT22;8799;43.594;13.526;2022-08-27T11:23:46;26.80;88.50
17364;DHT22;8799;43.594;13.526;2022-08-27T11:26:18;26.80;88.50
17364;DHT22;8799;43.594;13.526;2022-08-27T11:28:49;26.80;88.70
17364;DHT22;8799;43.594;13.526;2022-08-27T11:31:21;26.80;87.80
17364;DHT22;8799;43.594;13.526;2022-08-27T11:34:00;26.80;87.60
17364;DHT22;8799;43.594;13.526;2022-08-27T11:36:49;26.90;87.60
17364;DHT22;8799;43.594;13.526;2022-08-27T11:39:28;26.80;88.10
17364;DHT22;8799;43.594;13.526;2022-08-27T11:42:04;26.80;88.50
17364;DHT22;8799;43.594;13.526;2022-08-27T11:44:39;26.80;88.50
17364;DHT22;8799;43.594;13.526;2022-08-27T11:47:12;26.80;88.40
17364;DHT22;8799;43.594;13.526;2022-08-27T11:49:46;26.80;88.20
17364;DHT22;8799;43.594;13.526;2022-08-27T11:52:24;26.90;88.40
17364;DHT22;8799;43.594;13.526;2022-08-27T11:54:56;26.80;88.50
17364;DHT22;8799;43.594;13.526;2022-08-27T11:57:35;26.90;88.30
17364;DHT22;8799;43.594;13.526;2022-08-27T12:00:17;26.90;88.40
17364;DHT22;8799;43.594;13.526;2022-08-27T12:02:56;26.90;88.50
17364;DHT22;8799;43.594;13.526;2022-08-27T12:05:33;26.90;88.70
17364;DHT22;8799;43.594;13.526;2022-08-27T12:08:15;26.90;88.80
17364;DHT22;8799;43.594;13.526;2022-08-27T12:11:18;26.90;88.90
17364;DHT22;8799;43.594;13.526;2022-08-27T12:13:54;26.90;89.00
17364;DHT22;8799;43.594;13.526;2022-08-27T12:16:29;26.90;89.20
17364;DHT22;8799;43.594;13.526;2022-08-27T12:19:30;27.00;90.40
17364;DHT22;8799;43.594;13.526;2022-08-27T12:22:20;27.00;90.40
17364;DHT22;8799;43.594;13.526;2022-08-27T12:24:53;26.90;89.70
17364;DHT22;8799;43.594;13.526;2022-08-27T12:27:28;26.90;90.00
17364;DHT22;8799;43.594;13.526;2022-08-27T12:29:59;26.90;90.40
17364;DHT22;8799;43.594;13.526;2022-08-27T12:32:30;26.90;91.00
17364;DHT22;8799;43.594;13.526;2022-08-27T12:35:08;26.80;91.80
17364;DHT22;8799;43.594;13.526;2022-08-27T12:37:38;26.90;93.00
17364;DHT22;8799;43.594;13.526;2022-08-27T12:40:16;26.80;93.70
17364;DHT22;8799;43.594;13.526;2022-08-27T12:42:45;26.80;94.30
17364;DHT22;8799;43.594;13.526;2022-08-27T12:45:22;26.80;94.60
17364;DHT22;8799;43.594;13.526;2022-08-27T12:47:51;26.80;95.20
17364;DHT22;8799;43.594;13.526;2022-08-27T12:50:22;26.80;95.80
17364;DHT22;8799;43.594;13.526;2022-08-27T12:53:17;26.80;96.50
17364;DHT22;8799;43.594;13.526;2022-08-27T12:56:01;26.80;97.00
17364;DHT22;8799;43.594;13.526;2022-08-27T12:58:39;26.80;97.30
17364;DHT22;8799;43.594;13.526;2022-08-27T13:01:35;26.80;97.50
17364;DHT22;8799;43.594;13.526;2022-08-27T13:04:20;26.80;97.20
17364;DHT22;8799;43.594;13.526;2022-08-27T13:06:49;26.80;97.00
17364;DHT22;8799;43.594;13.526;2022-08-27T13:09:25;26.70;97.40
17364;DHT22;8799;43.594;13.526;2022-08-27T13:11:56;26.70;97.60
17364;DHT22;8799;43.594;13.526;2022-08-27T13:14:25;26.70;97.50
17364;DHT22;8799;43.594;13.526;2022-08-27T13:16:55;26.70;97.40
17364;DHT22;8799;43.594;13.526;2022-08-27T13:19:30;26.70;97.20
17364;DHT22;8799;43.594;13.526;2022-08-27T13:22:01;26.60;96.40
17364;DHT22;8799;43.594;13.526;2022-08-27T13:24:34;26.70;96.20
17364;DHT22;8799;43.594;13.526;2022-08-27T13:27:05;26.70;95.60
17364;DHT22;8799;43.594;13.526;2022-08-27T13:29:33;26.70;94.90
17364;DHT22;8799;43.594;13.526;2022-08-27T13:32:02;26.70;95.20
17364;DHT22;8799;43.594;13.526;2022-08-27T13:34:33;26.70;95.50
17364;DHT22;8799;43.594;13.526;2022-08-27T13:37:22;26.70;96.00
17364;DHT22;8799;43.594;13.526;2022-08-27T13:39:54;26.70;96.10
17364;DHT22;8799;43.594;13.526;2022-08-27T13:42:24;26.70;96.10
17364;DHT22;8799;43.594;13.526;2022-08-27T13:44:54;26.70;96.10
17364;DHT22;8799;43.594;13.526;2022-08-27T13:47:40;26.70;96.10
17364;DHT22;8799;43.594;13.526;2022-08-27T13:50:16;26.70;96.10
17364;DHT22;8799;43.594;13.526;2022-08-27T13:52:49;26.70;96.50
17364;DHT22;8799;43.594;13.526;2022-08-27T13:55:47;26.70;97.20
17364;DHT22;8799;43.594;13.526;2022-08-27T13:58:24;26.70;97.80
17364;DHT22;8799;43.594;13.526;2022-08-27T14:00:53;26.70;97.90
17364;DHT22;8799;43.594;13.526;2022-08-27T14:03:29;26.70;98.60
17364;DHT22;8799;43.594;13.526;2022-08-27T14:05:57;26.70;99.10
17364;DHT22;8799;43.594;13.526;2022-08-27T14:08:29;26.70;99.60
17364;DHT22;8799;43.594;13.526;2022-08-27T14:11:01;26.70;99.90
17364;DHT22;8799;43.594;13.526;2022-08-27T14:13:37;26.70;99.90
17364;DHT22;8799;43.594;13.526;2022-08-27T14:16:14;26.70;99.90
17364;DHT22;8799;43.594;13.526;2022-08-27T14:18:51;26.70;99.90
17364;DHT22;8799;43.594;13.526;2022-08-27T14:21:19;26.70;99.90
17364;DHT22;8799;43.594;13.526;2022-08-27T14:23:47;26.70;99.90
17364;DHT22;8799;43.594;13.526;2022-08-27T14:26:15;26.70;99.90
17364;DHT22;8799;43.594;13.526;2022-08-27T14:28:45;26.70;99.90
17364;DHT22;8799;43.594;13.526;2022-08-27T14:31:18;26.70;99.90
17364;DHT22;8799;43.594;13.526;2022-08-27T14:33:47;26.70;99.90
17364;DHT22;8799;43.594;13.526;2022-08-27T14:36:14;26.80;99.90
17364;DHT22;8799;43.594;13.526;2022-08-27T14:38:44;26.70;99.90
17364;DHT22;8799;43.594;13.526;2022-08-27T14:41:15;26.80;99.90
17364;DHT22;8799;43.594;13.526;2022-08-27T14:43:46;26.80;99.90
17364;DHT22;8799;43.594;13.526;2022-08-27T14:46:19;26.80;99.90
17364;DHT22;8799;43.594;13.526;2022-08-27T14:48:52;26.80;99.90
17364;DHT22;8799;43.594;13.526;2022-08-27T14:51:23;26.80;99.90
17364;DHT22;8799;43.594;13.526;2022-08-27T14:53:51;26.80;99.90
17364;DHT22;8799;43.594;13.526;2022-08-27T14:56:20;26.80;99.90
17364;DHT22;8799;43.594;13.526;2022-08-27T14:58:50;26.70;99.90
17364;DHT22;8799;43.594;13.526;2022-08-27T15:01:24;26.70;99.90
17364;DHT22;8799;43.594;13.526;2022-08-27T15:03:55;26.70;99.90
17364;DHT22;8799;43.594;13.526;2022-08-27T15:06:23;26.70;99.90
17364;DHT22;8799;43.594;13.526;2022-08-27T15:08:51;26.70;99.90
17364;DHT22;8799;43.594;13.526;2022-08-27T15:11:22;26.70;99.90
17364;DHT22;8799;43.594;13.526;2022-08-27T15:13:51;26.70;99.90
17364;DHT22;8799;43.594;13.526;2022-08-27T15:16:26;26.70;99.90
17364;DHT22;8799;43.594;13.526;2022-08-27T15:18:54;26.70;99.90
17364;DHT22;8799;43.594;13.526;2022-08-27T15:21:22;26.80;99.90
17364;DHT22;8799;43.594;13.526;2022-08-27T15:23:54;26.80;99.90
17364;DHT22;8799;43.594;13.526;2022-08-27T15:26:22;26.80;99.90
17364;DHT22;8799;43.594;13.526;2022-08-27T15:28:53;26.80;99.90
17364;DHT22;8799;43.594;13.526;2022-08-27T15:31:43;26.80;99.90
17364;DHT22;8799;43.594;13.526;2022-08-27T15:34:12;26.70;99.90
17364;DHT22;8799;43.594;13.526;2022-08-27T15:36:40;26.70;99.90
17364;DHT22;8799;43.594;13.526;2022-08-27T15:39:08;26.60;99.90
17364;DHT22;8799;43.594;13.526;2022-08-27T15:41:37;26.60;99.90
17364;DHT22;8799;43.594;13.526;2022-08-27T15:44:11;26.40;99.90
17364;DHT22;8799;43.594;13.526;2022-08-27T15:46:39;26.20;99.90
17364;DHT22;8799;43.594;13.526;2022-08-27T15:49:08;26.10;99.90
17364;DHT22;8799;43.594;13.526;2022-08-27T15:51:37;26.00;99.90
17364;DHT22;8799;43.594;13.526;2022-08-27T15:54:05;25.80;99.90
17364;DHT22;8799;43.594;13.526;2022-08-27T15:56:33;25.80;99.90
17364;DHT22;8799;43.594;13.526;2022-08-27T15:59:01;25.80;99.90